CJT306 CYVR-CYHM
Flight info
| Callsign | CJT306 |
|---|---|
| Flight time | N/A |
| Altitude | 34000 |
| Route | ALNOD DCT IKNIX DCT FINBO DCT ETLEM DCT PEMDU DCT MOT DCT CESNA Q140 DAYYY DCT HOCKE DCT AVSOX AVSOX2 |
| Aircraft | B752/M-SDE2E3FGHIJ3J4J7RWXY/LB1 |
Departure
| Time | 2026-05-03 23:16 |
|---|---|
| Airport | Vancouver International Airport (CYVR) |
Arrival
| Time | N/A |
|---|---|
| Airport | John C. Munro Hamilton International Airport (CYHM) |
| Time | Latitude | Longitude | Altitude | Speed | Heading |
|---|---|---|---|---|---|
| 2026-05-03 23:02 | 49.18928 | -123.17423 | 14 ft | 0 kts | 340° |
| 2026-05-03 23:04 | 49.18925 | -123.17359 | 14 ft | 0 kts | 340° |
| 2026-05-03 23:09 | 49.18912 | -123.17352 | 14 ft | 2 kts | 340° |
| 2026-05-03 23:09 | 49.18899 | -123.17345 | 14 ft | 2 kts | 340° |
| 2026-05-03 23:10 | 49.18890 | -123.17339 | 14 ft | 1 kts | 340° |
| 2026-05-03 23:10 | 49.18881 | -123.17327 | 14 ft | 0 kts | 285° |
| 2026-05-03 23:10 | 49.18880 | -123.17321 | 14 ft | 0 kts | 274° |
| 2026-05-03 23:14 | 49.18869 | -123.17377 | 14 ft | 8 kts | 213° |
| 2026-05-03 23:14 | 49.18832 | -123.17296 | 14 ft | 17 kts | 104° |
| 2026-05-03 23:14 | 49.18801 | -123.17079 | 14 ft | 25 kts | 101° |
| 2026-05-03 23:14 | 49.18766 | -123.16765 | 14 ft | 31 kts | 99° |
| 2026-05-03 23:15 | 49.18726 | -123.16441 | 14 ft | 30 kts | 103° |
| 2026-05-03 23:15 | 49.18637 | -123.16150 | 14 ft | 30 kts | 116° |
| 2026-05-03 23:15 | 49.18525 | -123.16048 | 14 ft | 15 kts | 197° |
| 2026-05-03 23:15 | 49.18482 | -123.16153 | 14 ft | 0 kts | 279° |
| 2026-05-03 23:16 | 49.18482 | -123.16155 | 14 ft | 4 kts | 278° |
| 2026-05-03 23:16 | 49.18547 | -123.16726 | 14 ft | 110 kts | 280° |
| 2026-05-03 23:16 | 49.18736 | -123.18336 | 456 ft | 184 kts | 282° |
| 2026-05-03 23:16 | 49.18999 | -123.20286 | 1836 ft | 210 kts | 283° |
| 2026-05-03 23:17 | 49.19346 | -123.22573 | 3155 ft | 242 kts | 284° |
| 2026-05-03 23:17 | 49.19630 | -123.24789 | 4843 ft | 198 kts | 275° |
| 2026-05-03 23:17 | 49.19446 | -123.26677 | 5852 ft | 177 kts | 249° |
| 2026-05-03 23:17 | 49.18681 | -123.28162 | 6447 ft | 186 kts | 215° |
| 2026-05-03 23:18 | 49.17461 | -123.28771 | 7111 ft | 198 kts | 190° |
| 2026-05-03 23:18 | 49.16111 | -123.29012 | 7991 ft | 201 kts | 188° |
| 2026-05-03 23:18 | 49.14704 | -123.29253 | 8829 ft | 212 kts | 188° |
| 2026-05-03 23:18 | 49.13252 | -123.29235 | 9867 ft | 214 kts | 168° |
| 2026-05-03 23:19 | 49.12391 | -123.28803 | 10309 ft | 217 kts | 156° |
| 2026-05-03 23:19 | 49.11113 | -123.27475 | 10647 ft | 231 kts | 131° |
| 2026-05-03 23:19 | 49.10322 | -123.25328 | 11110 ft | 236 kts | 110° |
| 2026-05-03 23:19 | 49.09740 | -123.22885 | 11401 ft | 254 kts | 107° |
| 2026-05-03 23:20 | 49.09308 | -123.20208 | 11905 ft | 260 kts | 103° |
| 2026-05-03 23:20 | 49.08884 | -123.17594 | 12654 ft | 256 kts | 103° |
| 2026-05-03 23:20 | 49.08432 | -123.14957 | 13209 ft | 260 kts | 104° |
| 2026-05-03 23:20 | 49.07943 | -123.12254 | 13694 ft | 267 kts | 103° |
| 2026-05-03 23:21 | 49.07518 | -123.09482 | 14234 ft | 270 kts | 101° |
| 2026-05-03 23:21 | 49.07081 | -123.06657 | 14659 ft | 279 kts | 103° |
| 2026-05-03 23:21 | 49.06601 | -123.03831 | 15298 ft | 276 kts | 102° |
| 2026-05-03 23:21 | 49.06166 | -123.01003 | 15957 ft | 273 kts | 101° |